Time;durP1;ratioP1;P1;durP2;ratioP2;P2;SDS_P1;SDS_P2;PMS_P1;PMS_P2;Temp;Humidity;BMP_temperature;BMP_pressure;BME280_temperature;BME280_humidity;BME280_pressure;Samples;Min_cycle;Max_cycle;Signal;HPM_P1;HPM_P2
2022/03/12 00:00:00;;;;;;;11.20;3.80;;;;;;;1.64;22.45;99942.88;4976900;28;20045;-66
2022/03/12 00:02:32;;;;;;;8.33;3.87;;;;;;;1.78;22.43;99945.50;5009398;28;20488;-65
2022/03/12 00:05:07;;;;;;;9.00;4.17;;;;;;;1.73;22.35;99942.31;5010568;28;20049;-65
2022/03/12 00:07:41;;;;;;;11.53;4.03;;;;;;;1.77;22.19;99949.03;4994558;28;20045;-66
2022/03/12 00:10:08;;;;;;;10.20;4.00;;;;;;;1.71;22.60;99933.69;4993717;28;20513;-66
2022/03/12 00:12:36;;;;;;;8.67;3.87;;;;;;;1.51;22.25;99915.75;4993308;28;20080;-66
2022/03/12 00:15:09;;;;;;;9.17;3.63;;;;;;;1.87;22.47;99938.81;4979449;28;20046;-65
2022/03/12 00:17:42;;;;;;;6.73;3.67;;;;;;;1.87;22.39;99946.69;4996298;28;20132;-65
2022/03/12 00:20:12;;;;;;;12.20;4.33;;;;;;;1.88;22.71;99959.66;5013026;28;20046;-65
2022/03/12 00:22:44;;;;;;;9.00;3.97;;;;;;;2.05;22.37;99943.75;4997409;28;20041;-65
2022/03/12 00:25:10;;;;;;;11.43;4.00;;;;;;;1.90;22.31;99936.84;4980396;28;20413;-66
2022/03/12 00:27:39;;;;;;;11.03;4.10;;;;;;;2.00;22.32;99937.94;4996654;28;20091;-65
2022/03/12 00:30:07;;;;;;;16.27;4.80;;;;;;;2.07;22.43;99938.41;4996583;28;20184;-65
2022/03/12 00:32:37;;;;;;;15.50;4.17;;;;;;;2.01;22.75;99939.66;4996370;28;20041;-65
2022/03/12 00:35:08;;;;;;;12.67;3.90;;;;;;;2.24;22.74;99943.41;5013782;28;20062;-65
2022/03/12 00:37:34;;;;;;;13.67;4.40;;;;;;;2.06;23.04;99934.94;5012582;28;20048;-65
2022/03/12 00:40:04;;;;;;;17.33;4.70;;;;;;;2.06;23.19;99905.31;4963852;28;20046;-65
2022/03/12 00:42:30;;;;;;;8.70;4.30;;;;;;;2.24;23.36;99931.16;4996227;28;20038;-65
2022/03/12 00:44:56;;;;;;;13.23;4.53;;;;;;;2.20;23.51;99927.03;4996134;28;20080;-65
2022/03/12 00:47:22;;;;;;;10.63;4.20;;;;;;;2.20;23.45;99931.47;4980328;28;20195;-65
2022/03/12 00:49:49;;;;;;;13.83;5.20;;;;;;;2.19;23.57;99925.38;4996103;28;20573;-65
2022/03/12 00:52:16;;;;;;;11.70;4.87;;;;;;;2.28;23.29;99924.75;4996049;28;20422;-65
2022/03/12 00:54:45;;;;;;;16.57;4.90;;;;;;;2.25;23.78;99911.88;5012297;28;20053;-65
2022/03/12 00:57:12;;;;;;;11.20;5.00;;;;;;;2.32;23.87;99909.69;4995811;28;20070;-66
2022/03/12 00:59:41;;;;;;;11.37;4.80;;;;;;;2.34;23.86;99919.13;4995822;28;20045;-66
2022/03/12 01:02:19;;;;;;;11.57;4.23;;;;;;;2.45;23.89;99906.16;5011986;28;20505;-66
2022/03/12 01:04:45;;;;;;;13.73;4.83;;;;;;;2.30;24.15;99901.94;4963451;28;20050;-65
2022/03/12 01:07:12;;;;;;;21.17;5.20;;;;;;;2.13;24.09;99877.75;4963408;28;20050;-66
2022/03/12 01:09:38;;;;;;;14.67;5.10;;;;;;;2.35;24.50;99910.34;5011858;28;20046;-65
2022/03/12 01:12:06;;;;;;;17.27;5.47;;;;;;;2.33;24.39;99909.59;4979495;28;20050;-65
2022/03/12 01:14:32;;;;;;;18.77;5.40;;;;;;;2.22;24.49;99901.59;4979480;28;20045;-66
2022/03/12 01:16:58;;;;;;;14.23;4.93;;;;;;;2.17;24.69;99898.41;5011873;28;20042;-65
2022/03/12 01:19:25;;;;;;;14.27;5.60;;;;;;;2.24;24.67;99891.84;4995815;28;20128;-65
2022/03/12 01:21:51;;;;;;;15.67;4.90;;;;;;;2.15;24.61;99887.22;4995397;28;20137;-66
2022/03/12 01:24:17;;;;;;;17.93;5.70;;;;;;;1.91;24.91;99857.34;5012721;28;20227;-66
2022/03/12 01:26:43;;;;;;;14.57;5.13;;;;;;;1.99;25.10;99886.50;4946804;28;20101;-65
2022/03/12 01:29:09;;;;;;;12.30;5.27;;;;;;;1.98;25.19;99884.84;4995272;28;20136;-65
2022/03/12 01:31:35;;;;;;;12.43;4.83;;;;;;;2.04;25.56;99889.69;4979066;28;20181;-65
2022/03/12 01:34:02;;;;;;;13.60;5.00;;;;;;;1.92;25.28;99866.91;4962581;28;20080;-65
2022/03/12 01:36:28;;;;;;;16.93;5.23;;;;;;;1.90;25.11;99874.00;5011317;28;20050;-68
2022/03/12 01:38:55;;;;;;;11.10;4.63;;;;;;;2.04;25.14;99878.34;4979321;28;20493;-65
2022/03/12 01:41:24;;;;;;;10.87;5.23;;;;;;;1.88;25.64;99849.69;5012522;28;20041;-65
2022/03/12 01:43:53;;;;;;;15.50;5.43;;;;;;;1.87;25.64;99860.25;4994977;28;20128;-65
2022/03/12 01:46:32;;;;;;;15.80;4.90;;;;;;;2.09;25.50;99876.28;4962599;28;20096;-65
2022/03/12 01:48:59;;;;;;;14.90;5.00;;;;;;;1.85;25.75;99854.28;5011079;28;20191;-69
2022/03/12 01:51:26;;;;;;;22.90;5.67;;;;;;;2.06;26.03;99882.53;4995168;28;20091;-65
2022/03/12 01:53:53;;;;;;;12.07;5.13;;;;;;;2.07;25.76;99868.53;4978512;28;20057;-65
2022/03/12 01:56:20;;;;;;;17.10;4.93;;;;;;;1.99;25.85;99876.03;4946508;28;20042;-65
2022/03/12 01:58:49;;;;;;;12.20;5.00;;;;;;;2.15;25.64;99868.03;5011152;28;20038;-65
2022/03/12 02:01:15;;;;;;;16.23;6.03;;;;;;;1.93;26.10;99847.63;4994676;28;20041;-66
2022/03/12 02:03:42;;;;;;;21.27;6.77;;;;;;;2.19;25.80;99875.59;4994663;28;20041;-65
2022/03/12 02:06:08;;;;;;;21.33;5.97;;;;;;;2.12;25.75;99855.13;4994746;28;20547;-66
2022/03/12 02:08:54;;;;;;;18.00;6.30;;;;;;;2.31;25.69;99872.16;4978573;28;20045;-65
2022/03/12 02:11:29;;;;;;;12.87;5.43;;;;;;;2.38;25.74;99877.84;4978580;28;20042;-66
2022/03/12 02:14:10;;;;;;;13.63;5.40;;;;;;;2.50;25.25;99877.88;5011226;28;20045;-66
2022/03/12 02:16:36;;;;;;;12.53;5.50;;;;;;;2.29;24.99;99868.78;4994474;28;20041;-67
2022/03/12 02:19:03;;;;;;;16.07;5.53;;;;;;;2.41;25.39;99873.25;4994468;28;20033;-65
2022/03/12 02:21:38;;;;;;;16.10;6.43;;;;;;;2.29;25.73;99845.19;4978596;28;20045;-65
2022/03/12 02:24:09;;;;;;;16.50;6.07;;;;;;;2.32;25.75;99842.38;5010422;28;20144;-66
2022/03/12 02:26:38;;;;;;;18.42;6.70;;;;;;;2.37;26.05;99866.50;4978270;28;20121;-66
2022/03/12 02:29:12;;;;;;;21.20;6.57;;;;;;;2.41;26.05;99873.25;4994539;28;20073;-66
2022/03/12 02:31:45;;;;;;;17.57;6.47;;;;;;;2.59;25.90;99865.91;5010630;28;20038;-66
2022/03/12 02:34:11;;;;;;;16.43;5.57;;;;;;;2.30;25.85;99836.41;5010271;28;20115;-67
2022/03/12 02:36:38;;;;;;;12.57;5.90;;;;;;;2.58;25.78;99859.88;4993443;28;20042;-66
2022/03/12 02:39:05;;;;;;;23.20;6.00;;;;;;;2.54;26.07;99847.88;4994043;28;20045;-66
2022/03/12 02:41:31;;;;;;;14.50;5.10;;;;;;;2.39;25.78;99833.19;4994091;28;20188;-69
2022/03/12 02:43:58;;;;;;;24.60;5.30;;;;;;;2.53;26.05;99850.59;4978246;28;20049;-65
2022/03/12 02:46:28;;;;;;;16.33;5.20;;;;;;;2.48;26.08;99858.78;4993820;28;20099;-65
2022/03/12 02:48:55;;;;;;;10.50;4.78;;;;;;;2.42;26.28;99840.84;5010184;28;20076;-66
2022/03/12 02:51:22;;;;;;;10.57;5.70;;;;;;;2.43;26.11;99852.19;5010180;28;20065;-65
2022/03/12 02:53:53;;;;;;;10.90;4.63;;;;;;;2.50;26.59;99856.91;4993979;28;20119;-65
2022/03/12 02:56:19;;;;;;;16.27;5.30;;;;;;;2.43;26.49;99836.44;5010173;28;20506;-65
2022/03/12 02:58:48;;;;;;;10.80;4.93;;;;;;;2.57;26.36;99847.69;4993690;28;20095;-65
2022/03/12 03:01:16;;;;;;;10.73;4.23;;;;;;;2.43;26.65;99847.75;4961268;28;20071;-66
2022/03/12 03:03:43;;;;;;;10.83;5.00;;;;;;;2.53;26.75;99851.47;4977814;28;20103;-65
2022/03/12 03:06:09;;;;;;;14.37;4.43;;;;;;;2.52;26.90;99848.94;5009783;28;20081;-65
2022/03/12 03:08:39;;;;;;;18.07;4.80;;;;;;;2.47;26.78;99843.16;5010037;28;20048;-66
2022/03/12 03:11:14;;;;;;;14.63;5.63;;;;;;;2.70;26.89;99838.06;5009969;28;20042;-66
2022/03/12 03:13:44;;;;;;;17.00;5.50;;;;;;;2.55;27.34;99836.44;5010050;28;20567;-67
2022/03/12 03:16:22;;;;;;;15.27;5.10;;;;;;;2.60;27.88;99831.75;5011223;28;20046;-66
2022/03/12 03:18:53;;;;;;;9.85;4.65;;;;;;;2.55;27.96;99825.13;5011086;28;20081;-66
2022/03/12 03:21:24;;;;;;;9.63;4.63;;;;;;;2.64;27.60;99828.00;4993495;28;20498;-66
2022/03/12 03:23:50;;;;;;;9.05;4.03;;;;;;;2.49;27.52;99823.75;5009941;28;20136;-66
2022/03/12 03:26:21;;;;;;;11.70;5.07;;;;;;;2.71;27.68;99823.13;4993776;28;20054;-65
2022/03/12 03:28:47;;;;;;;11.23;4.50;;;;;;;2.43;27.95;99818.91;4993531;28;20418;-66
2022/03/12 03:31:13;;;;;;;13.30;4.73;;;;;;;2.44;28.21;99812.75;4993348;28;20046;-67
2022/03/12 03:33:38;;;;;;;8.50;4.07;;;;;;;2.42;28.31;99813.78;5009575;28;20506;-66
2022/03/12 03:36:04;;;;;;;10.63;4.23;;;;;;;2.41;28.71;99812.13;4977231;28;20056;-67
2022/03/12 03:38:30;;;;;;;14.80;5.93;;;;;;;2.44;28.58;99815.38;4993509;28;20038;-66
2022/03/12 03:40:56;;;;;;;12.83;6.33;;;;;;;2.48;28.65;99819.47;4993324;28;20524;-65
2022/03/12 03:43:24;;;;;;;16.47;7.17;;;;;;;2.58;28.79;99815.28;4961250;28;20065;-65
2022/03/12 03:45:52;;;;;;;19.67;8.60;;;;;;;2.65;28.90;99813.06;4993191;28;20057;-66
2022/03/12 03:48:21;;;;;;;17.07;6.63;;;;;;;2.65;28.76;99810.44;4994647;28;20107;-66
2022/03/12 03:50:48;;;;;;;17.87;5.57;;;;;;;2.61;28.80;99815.09;4997172;28;20045;-66
2022/03/12 03:53:16;;;;;;;12.80;5.10;;;;;;;2.57;28.99;99821.47;5014622;28;20049;-67
2022/03/12 03:55:43;;;;;;;12.57;5.07;;;;;;;2.53;28.78;99824.41;4997036;28;20053;-66
2022/03/12 03:58:12;;;;;;;15.10;5.00;;;;;;;2.60;29.23;99823.88;5013368;28;20049;-67
2022/03/12 04:00:38;;;;;;;11.43;4.23;;;;;;;2.48;29.85;99826.47;4997305;28;20038;-66
2022/03/12 04:03:09;;;;;;;17.67;5.70;;;;;;;2.52;29.60;99835.84;4980679;28;20046;-67
2022/03/12 04:05:37;;;;;;;17.25;4.70;;;;;;;2.67;29.49;99830.41;4965583;28;20056;-66
2022/03/12 04:08:07;;;;;;;15.50;5.40;;;;;;;2.81;29.50;99848.66;4997083;28;20054;-66
2022/03/12 04:10:38;;;;;;;10.27;4.68;;;;;;;2.77;29.65;99847.16;5013292;28;20049;-66
2022/03/12 04:13:12;;;;;;;12.15;4.68;;;;;;;2.96;29.55;99850.22;5013285;28;20140;-66
2022/03/12 04:15:39;;;;;;;10.93;4.60;;;;;;;2.89;29.59;99848.97;5013241;28;20085;-65
2022/03/12 04:18:07;;;;;;;17.37;5.33;;;;;;;2.82;29.98;99844.22;4996890;28;20524;-66
2022/03/12 04:20:34;;;;;;;14.47;5.37;;;;;;;2.74;30.16;99817.69;4997012;28;20463;-66
2022/03/12 04:23:00;;;;;;;11.60;5.53;;;;;;;2.97;30.23;99851.06;4980099;28;20038;-66
2022/03/12 04:25:27;;;;;;;11.73;5.33;;;;;;;3.04;30.17;99860.19;5012758;28;20907;-66
2022/03/12 04:27:54;;;;;;;20.97;5.73;;;;;;;2.93;29.96;99831.22;4996658;28;20417;-66
2022/03/12 04:30:19;;;;;;;9.33;4.80;;;;;;;3.16;29.75;99854.94;4996377;28;20129;-65
2022/03/12 04:32:46;;;;;;;15.37;5.43;;;;;;;3.30;29.52;99859.22;4964186;28;20134;-66
2022/03/12 04:35:13;;;;;;;16.63;5.90;;;;;;;3.23;29.94;99808.09;4993021;28;20057;-66
2022/03/12 04:37:39;;;;;;;18.27;5.67;;;;;;;3.52;29.55;99854.16;5009387;28;20518;-66
2022/03/12 04:40:10;;;;;;;15.07;6.03;;;;;;;3.54;29.63;99838.28;4977169;28;20228;-65
2022/03/12 04:42:43;;;;;;;17.27;5.90;;;;;;;3.67;30.13;99853.06;4993212;28;20046;-66
2022/03/12 04:45:19;;;;;;;18.23;5.70;;;;;;;3.63;29.91;99830.56;4993002;28;20081;-67
2022/03/12 04:47:47;;;;;;;18.80;5.50;;;;;;;3.83;29.90;99861.50;5009020;28;20107;-66
2022/03/12 04:50:16;;;;;;;17.23;4.97;;;;;;;3.72;30.11;99836.97;4992656;28;20418;-66
2022/03/12 04:52:44;;;;;;;14.70;5.33;;;;;;;3.97;30.41;99871.00;4992751;28;20042;-66
2022/03/12 04:55:18;;;;;;;17.07;4.10;;;;;;;4.15;30.74;99870.50;4993805;28;20053;-67
2022/03/12 04:57:44;;;;;;;6.43;3.90;;;;;;;4.00;30.65;99871.63;4992664;28;20042;-66
2022/03/12 05:00:17;;;;;;;6.43;3.43;;;;;;;4.18;31.20;99874.72;4975610;28;20573;-66
2022/03/12 05:02:45;;;;;;;7.27;3.10;;;;;;;4.11;31.32;99860.34;4992453;28;20077;-66
2022/03/12 05:05:12;;;;;;;18.37;5.23;;;;;;;4.19;31.60;99868.50;4976483;28;20469;-67
2022/03/12 05:07:43;;;;;;;5.53;3.30;;;;;;;4.34;31.64;99870.00;4992649;28;20050;-67
2022/03/12 05:10:13;;;;;;;6.27;3.47;;;;;;;4.34;31.70;99864.75;4992665;28;20104;-70
2022/03/12 05:12:43;;;;;;;5.63;3.57;;;;;;;4.02;31.85;99817.19;4960554;28;20045;-70
2022/03/12 05:15:11;;;;;;;9.75;3.53;;;;;;;4.37;31.94;99856.63;4992583;28;20517;-72
2022/03/12 05:17:47;;;;;;;6.07;3.40;;;;;;;4.57;32.04;99867.34;4971396;28;20552;-69
2022/03/12 05:20:46;;;;;;;9.97;3.90;;;;;;;4.74;31.76;99866.09;4973984;28;20046;-64
2022/03/12 05:23:18;;;;;;;7.73;3.43;;;;;;;4.75;32.06;99849.38;4973671;28;20102;-66
2022/03/12 05:25:47;;;;;;;11.57;3.50;;;;;;;4.73;32.28;99854.75;4988367;28;21169;-68
2022/03/12 05:28:19;;;;;;;11.77;3.07;;;;;;;4.81;32.45;99859.41;4987782;28;20046;-67
2022/03/12 05:30:46;;;;;;;5.40;3.07;;;;;;;4.91;32.02;99857.75;4987825;28;20089;-65
2022/03/12 05:33:16;;;;;;;4.37;3.03;;;;;;;4.87;31.92;99832.63;4954862;28;20395;-72
2022/03/12 05:35:46;;;;;;;6.63;3.13;;;;;;;5.04;32.27;99845.34;4956822;28;20203;-69
2022/03/12 05:38:13;;;;;;;6.03;3.73;;;;;;;5.12;32.06;99849.03;4972321;28;20046;-71
2022/03/12 05:40:40;;;;;;;8.53;3.57;;;;;;;4.99;32.31;99834.31;4972950;28;20081;-71
2022/03/12 05:43:09;;;;;;;7.93;3.50;;;;;;;5.16;32.02;99857.56;4972626;28;20042;-72
2022/03/12 05:45:36;;;;;;;7.57;3.47;;;;;;;5.22;32.37;99870.25;4957024;28;20046;-72
2022/03/12 05:48:01;;;;;;;7.00;3.37;;;;;;;5.13;32.47;99865.69;4972247;28;20038;-72
2022/03/12 05:50:27;;;;;;;7.03;3.40;;;;;;;5.33;32.21;99878.16;4923396;28;20502;-72
2022/03/12 05:52:54;;;;;;;5.90;3.53;;;;;;;5.31;32.13;99874.78;4923992;28;20051;-72
2022/03/12 05:55:22;;;;;;;9.13;4.03;;;;;;;5.65;32.15;99872.97;4972166;28;20120;-74
2022/03/12 05:57:49;;;;;;;7.63;3.00;;;;;;;5.66;32.06;99858.88;4986896;28;20114;-70
2022/03/12 06:00:17;;;;;;;7.17;3.77;;;;;;;5.80;32.19;99869.13;4972429;28;20053;-72
2022/03/12 06:02:55;;;;;;;6.83;3.67;;;;;;;5.93;32.20;99867.22;4988532;28;20082;-70
2022/03/12 06:05:23;;;;;;;6.30;3.50;;;;;;;5.92;31.83;99855.81;4989176;28;20058;-68
2022/03/12 06:07:51;;;;;;;6.30;3.67;;;;;;;5.83;32.04;99851.31;4991635;28;20395;-70
2022/03/12 06:10:20;;;;;;;7.27;3.40;;;;;;;5.86;32.03;99858.16;4991382;28;20180;-69
2022/03/12 06:12:47;;;;;;;13.00;3.70;;;;;;;5.86;31.90;99860.78;4990410;28;20176;-70
2022/03/12 06:15:18;;;;;;;9.77;3.70;;;;;;;6.12;31.76;99856.88;5007913;28;20100;-69
2022/03/12 06:17:45;;;;;;;8.18;3.58;;;;;;;6.10;32.10;99857.00;4991657;28;20046;-70
2022/03/12 06:20:12;;;;;;;7.43;3.83;;;;;;;6.12;32.38;99847.16;5007854;28;20141;-69
2022/03/12 06:22:39;;;;;;;6.57;3.33;;;;;;;6.11;32.62;99845.47;4991672;28;20042;-71
2022/03/12 06:25:09;;;;;;;7.90;3.70;;;;;;;6.19;32.16;99848.34;4975008;28;20125;-71
2022/03/12 06:27:41;;;;;;;7.93;3.53;;;;;;;6.23;32.10;99848.91;4991687;28;20064;-72
2022/03/12 06:30:10;;;;;;;8.63;4.20;;;;;;;6.30;32.16;99847.47;4991270;28;20525;-71
2022/03/12 06:32:38;;;;;;;6.13;3.63;;;;;;;6.28;32.05;99847.59;4991274;28;20034;-72
2022/03/12 06:35:05;;;;;;;9.07;4.10;;;;;;;6.36;32.07;99845.16;4971581;28;20564;-71
2022/03/12 06:37:31;;;;;;;6.57;3.57;;;;;;;6.37;31.96;99841.53;4971747;28;20047;-70
2022/03/12 06:39:59;;;;;;;7.40;4.13;;;;;;;6.41;31.62;99852.69;4955485;28;20046;-71
2022/03/12 06:42:27;;;;;;;8.60;3.53;;;;;;;6.50;31.43;99854.56;4971473;28;20046;-72
2022/03/12 06:44:56;;;;;;;6.80;4.00;;;;;;;6.57;31.29;99856.56;4971822;28;20451;-72
2022/03/12 06:47:26;;;;;;;9.17;3.63;;;;;;;6.68;31.10;99859.16;4987080;28;20152;-72
2022/03/12 06:49:52;;;;;;;7.27;3.90;;;;;;;6.61;30.84;99863.25;4971376;28;20046;-72
2022/03/12 06:52:18;;;;;;;7.77;4.10;;;;;;;6.65;30.63;99863.84;4955150;28;20285;-72
2022/03/12 06:54:44;;;;;;;7.30;3.53;;;;;;;6.68;30.47;99860.94;4987680;28;20057;-73
2022/03/12 06:57:10;;;;;;;8.00;3.50;;;;;;;6.69;30.34;99860.81;4987814;28;20526;-73
2022/03/12 06:59:38;;;;;;;8.87;4.17;;;;;;;6.84;30.21;99862.16;4971293;28;20046;-70
2022/03/12 07:02:07;;;;;;;;;;;;;;;7.02;29.87;99869.50;4987807;28;20454;-71
2022/03/12 07:04:33;;;;;;;6.27;3.20;;;;;;;6.73;30.06;99856.13;4971194;28;19929;-75
2022/03/12 07:07:01;;;;;;;9.67;3.70;;;;;;;6.70;30.31;99865.13;4971384;28;20057;-71
2022/03/12 07:09:28;;;;;;;6.37;3.67;;;;;;;6.70;30.39;99865.13;4954911;28;20418;-70
2022/03/12 07:11:58;;;;;;;5.97;3.60;;;;;;;6.68;30.37;99863.59;4955086;28;20055;-72
2022/03/12 07:14:26;;;;;;;16.77;3.77;;;;;;;6.73;30.34;99858.75;4971192;28;20495;-71
2022/03/12 07:16:52;;;;;;;5.83;3.73;;;;;;;6.75;30.38;99875.28;4971102;28;20051;-71
2022/03/12 07:19:18;;;;;;;6.83;4.03;;;;;;;6.68;30.30;99874.97;4987210;28;20453;-71
2022/03/12 07:21:44;;;;;;;6.90;4.13;;;;;;;6.71;30.69;99876.53;4970673;28;20043;-67
2022/03/12 07:24:10;;;;;;;7.97;4.00;;;;;;;6.66;30.50;99869.00;4986243;28;20050;-74
2022/03/12 07:26:38;;;;;;;8.37;3.73;;;;;;;6.78;30.79;99881.16;4986713;28;20077;-73
2022/03/12 07:29:06;;;;;;;7.30;3.83;;;;;;;6.89;30.06;99875.81;4954822;28;20058;-71
2022/03/12 07:31:32;;;;;;;6.43;3.37;;;;;;;6.95;29.96;99878.91;4970727;28;20124;-72
2022/03/12 07:34:00;;;;;;;9.53;3.77;;;;;;;6.99;29.82;99864.47;4941587;28;20113;-71
2022/03/12 07:36:26;;;;;;;10.87;4.10;;;;;;;7.01;29.98;99867.84;4937612;28;20046;-70
2022/03/12 07:38:52;;;;;;;9.87;4.03;;;;;;;7.13;29.89;99872.91;4922551;28;20145;-74
2022/03/12 07:41:18;;;;;;;9.43;4.60;;;;;;;7.19;29.92;99874.19;4938561;28;20577;-73
2022/03/12 07:43:44;;;;;;;15.07;4.70;;;;;;;7.21;29.86;99867.78;4969370;28;20038;-71
2022/03/12 07:46:10;;;;;;;11.83;4.57;;;;;;;7.21;30.05;99864.34;4936170;28;20047;-72
2022/03/12 07:48:37;;;;;;;9.47;5.17;;;;;;;7.15;30.02;99870.16;4936212;28;20051;-71
2022/03/12 07:51:03;;;;;;;11.20;4.90;;;;;;;7.14;30.13;99871.09;4920612;28;20058;-73
2022/03/12 07:53:30;;;;;;;11.87;4.13;;;;;;;7.19;30.01;99874.19;4956475;28;20047;-72
2022/03/12 07:55:56;;;;;;;9.70;4.20;;;;;;;7.28;30.01;99876.03;4946905;28;20129;-72
2022/03/12 07:58:27;;;;;;;10.30;4.43;;;;;;;7.34;29.74;99875.50;4965654;28;20130;-72
2022/03/12 08:00:57;;;;;;;11.27;4.60;;;;;;;7.43;29.61;99877.34;4972788;28;20049;-72
2022/03/12 08:03:24;;;;;;;6.70;4.27;;;;;;;7.56;29.83;99881.47;4955946;28;20430;-72
2022/03/12 08:05:50;;;;;;;8.03;4.40;;;;;;;7.60;29.78;99889.94;4956909;28;20042;-72
2022/03/12 08:08:17;;;;;;;10.10;4.37;;;;;;;7.53;29.33;99883.53;4956329;28;20039;-72
2022/03/12 08:13:29;;;;;;;7.80;4.13;;;;;;;7.58;29.24;99890.09;4964526;28;20109;-70
2022/03/12 08:15:56;;;;;;;10.97;4.43;;;;;;;7.60;29.60;99885.50;4966533;28;20042;-70
2022/03/12 08:18:22;;;;;;;11.00;4.37;;;;;;;7.77;29.30;99891.97;4967726;28;20050;-70
2022/03/12 08:20:49;;;;;;;7.23;4.23;;;;;;;7.82;29.22;99895.91;4962273;28;20042;-71
2022/03/12 08:23:15;;;;;;;13.20;4.33;;;;;;;7.86;29.38;99885.88;4983484;28;20046;-71
2022/03/12 08:25:42;;;;;;;10.30;4.37;;;;;;;7.83;29.24;99888.78;4951305;28;20133;-71
2022/03/12 08:28:09;;;;;;;9.30;4.53;;;;;;;7.87;29.04;99885.72;4947585;28;20043;-71
2022/03/12 08:30:36;;;;;;;9.40;4.60;;;;;;;7.78;29.47;99896.31;4956994;28;20835;-69
2022/03/12 08:33:04;;;;;;;11.30;4.87;;;;;;;7.51;29.73;99891.59;4962838;28;20522;-70
2022/03/12 08:35:31;;;;;;;12.97;5.80;;;;;;;7.40;29.81;99885.53;4984751;28;20058;-71
2022/03/12 08:37:57;;;;;;;11.07;5.60;;;;;;;7.36;29.77;99877.06;4984240;28;20049;-71
2022/03/12 08:40:25;;;;;;;18.00;5.93;;;;;;;7.59;29.77;99886.50;4973221;28;20045;-68
2022/03/12 08:42:53;;;;;;;10.17;5.67;;;;;;;7.66;29.47;99861.19;4989653;28;20050;-70
2022/03/12 08:45:19;;;;;;;16.00;7.23;;;;;;;7.95;29.43;99890.38;4973607;28;20042;-68
2022/03/12 08:47:45;;;;;;;11.57;6.17;;;;;;;7.96;29.20;99889.38;4957479;28;20136;-69
2022/03/12 08:50:11;;;;;;;10.97;5.50;;;;;;;7.94;29.18;99892.16;4962687;28;20213;-69
2022/03/12 08:52:38;;;;;;;11.80;5.67;;;;;;;8.04;28.98;99885.06;4946931;28;20038;-70
2022/03/12 08:55:05;;;;;;;8.70;4.47;;;;;;;8.17;28.87;99890.97;4971055;28;20069;-69
2022/03/12 08:57:31;;;;;;;13.10;4.90;;;;;;;8.12;28.77;99893.19;4951911;28;20047;-68
2022/03/12 08:59:57;;;;;;;13.93;4.90;;;;;;;8.02;29.02;99894.13;4984871;28;20049;-69
2022/03/12 09:02:23;;;;;;;11.03;4.97;;;;;;;8.02;28.94;99884.41;4954564;28;20133;-68
2022/03/12 09:04:51;;;;;;;9.70;4.97;;;;;;;8.05;28.88;99862.97;4969787;28;20082;-69
2022/03/12 09:07:17;;;;;;;21.03;5.17;;;;;;;8.07;28.99;99886.63;4954394;28;20191;-69
2022/03/12 09:09:43;;;;;;;13.87;5.43;;;;;;;8.07;28.80;99892.75;4922582;28;20478;-66
2022/03/12 09:12:11;;;;;;;10.23;5.20;;;;;;;8.17;28.83;99903.34;4970488;28;20043;-67
2022/03/12 09:14:37;;;;;;;10.47;5.07;;;;;;;8.15;28.81;99903.47;4937953;28;20141;-66
2022/03/12 09:17:07;;;;;;;8.77;5.30;;;;;;;8.33;28.81;99909.00;4937983;28;20597;-67
2022/03/12 09:19:35;;;;;;;8.85;4.72;;;;;;;8.19;28.70;99899.63;4970137;28;20073;-68
2022/03/12 09:22:02;;;;;;;10.43;5.00;;;;;;;8.20;28.64;99913.66;4954581;28;20050;-67
2022/03/12 09:24:29;;;;;;;12.27;5.33;;;;;;;8.08;28.66;99875.91;4977170;28;20041;-68
2022/03/12 09:26:57;;;;;;;16.00;7.33;;;;;;;8.17;28.90;99908.63;4986818;28;20478;-67
2022/03/12 09:29:23;;;;;;;26.10;10.03;;;;;;;8.00;28.88;99902.19;4969292;28;20557;-67
2022/03/12 09:31:52;;;;;;;16.57;6.57;;;;;;;7.94;29.23;99907.19;4954175;28;20046;-67
2022/03/12 09:34:18;;;;;;;44.70;13.60;;;;;;;7.61;29.54;99913.59;4926446;28;20046;-67
2022/03/12 09:36:48;;;;;;;59.07;16.10;;;;;;;7.62;29.78;99911.81;4985094;28;20129;-67
2022/03/12 09:39:14;;;;;;;30.00;9.53;;;;;;;7.48;30.08;99899.78;4982474;28;20435;-67
2022/03/12 09:41:40;;;;;;;32.07;8.93;;;;;;;7.54;29.95;99904.53;4936064;28;20043;-68
2022/03/12 09:44:06;;;;;;;12.30;4.73;;;;;;;7.63;29.67;99881.75;4969116;28;20125;-68
2022/03/12 09:46:32;;;;;;;18.33;6.13;;;;;;;7.81;29.51;99909.25;4969317;28;20432;-68
2022/03/12 09:48:58;;;;;;;19.67;7.37;;;;;;;7.78;29.92;99904.22;4937695;28;20053;-69
2022/03/12 09:51:28;;;;;;;15.20;6.43;;;;;;;7.76;29.96;99909.66;4938441;28;20042;-68
2022/03/12 09:53:58;;;;;;;14.33;5.57;;;;;;;7.94;29.69;99902.75;4972124;28;20054;-70
2022/03/12 09:56:24;;;;;;;11.47;5.20;;;;;;;7.78;29.87;99915.63;4963644;28;20079;-68
2022/03/12 09:58:50;;;;;;;13.13;4.97;;;;;;;7.71;29.91;99911.84;4936716;28;20049;-69
2022/03/12 10:01:17;;;;;;;10.37;5.00;;;;;;;7.70;30.23;99917.28;4920700;29;20039;-69
2022/03/12 10:03:44;;;;;;;13.97;4.73;;;;;;;7.67;30.17;99921.00;4952530;28;20133;-69
2022/03/12 10:06:16;;;;;;;10.83;5.90;;;;;;;7.66;30.35;99916.69;4968062;28;20134;-69
2022/03/12 10:08:43;;;;;;;15.80;5.73;;;;;;;7.72;30.19;99912.69;4920924;29;20328;-68
2022/03/12 10:11:08;;;;;;;13.57;5.77;;;;;;;7.62;30.56;99912.66;4968166;28;20061;-68
2022/03/12 10:13:34;;;;;;;14.03;4.97;;;;;;;7.68;30.35;99913.91;4951285;28;20407;-68
2022/03/12 10:16:01;;;;;;;10.00;4.87;;;;;;;7.50;30.23;99897.00;4933207;29;20050;-67
2022/03/12 10:18:27;;;;;;;10.57;4.97;;;;;;;7.68;30.31;99917.41;4944048;28;20074;-67
2022/03/12 10:20:54;;;;;;;15.10;4.90;;;;;;;7.79;30.16;99919.97;4984358;28;20053;-67
2022/03/12 10:23:20;;;;;;;14.07;5.73;;;;;;;7.75;30.18;99910.59;4968175;28;20517;-67
2022/03/12 10:25:46;;;;;;;14.27;5.53;;;;;;;7.79;30.05;99914.69;4967328;28;20046;-67
2022/03/12 10:28:12;;;;;;;8.43;4.63;;;;;;;7.84;30.06;99922.19;4952091;28;20597;-67
2022/03/12 10:30:39;;;;;;;10.30;4.77;;;;;;;7.97;29.72;99922.78;4951763;28;20042;-67
2022/03/12 10:33:05;;;;;;;8.17;4.40;;;;;;;7.99;29.32;99919.06;4951923;28;20047;-67
2022/03/12 10:35:36;;;;;;;11.83;4.90;;;;;;;7.96;29.36;99899.97;4951652;28;20059;-67
2022/03/12 10:38:09;;;;;;;11.60;5.50;;;;;;;8.10;29.20;99924.22;4968525;28;20039;-68
2022/03/12 10:40:35;;;;;;;10.20;5.33;;;;;;;7.80;29.64;99900.47;4936441;28;20075;-68
2022/03/12 10:43:05;;;;;;;10.27;5.13;;;;;;;8.08;29.50;99927.97;4973507;28;20571;-68
2022/03/12 10:45:39;;;;;;;10.70;4.87;;;;;;;8.18;29.46;99918.28;4967976;28;20046;-68
2022/03/12 10:48:05;;;;;;;9.23;4.77;;;;;;;8.13;29.16;99923.13;4952297;28;20076;-68
2022/03/12 10:50:38;;;;;;;11.37;4.83;;;;;;;8.34;28.80;99923.88;4952298;28;20054;-68
2022/03/12 10:53:06;;;;;;;9.43;4.93;;;;;;;8.27;28.94;99930.72;4968538;28;20051;-68
2022/03/12 10:55:34;;;;;;;8.83;5.17;;;;;;;8.20;28.84;99922.44;4969774;28;20097;-68
2022/03/12 10:58:07;;;;;;;14.90;6.13;;;;;;;8.28;29.15;99922.63;4967305;28;20077;-67
2022/03/12 11:00:54;;;;;;;15.33;7.50;;;;;;;8.50;29.00;99929.50;4969256;28;20041;-68
2022/03/12 11:03:26;;;;;;;23.40;7.90;;;;;;;8.25;29.09;99892.97;4984375;28;20048;-69
2022/03/12 11:05:54;;;;;;;18.00;6.10;;;;;;;8.44;29.12;99928.22;4968107;28;20156;-69
2022/03/12 11:08:23;;;;;;;11.07;6.23;;;;;;;8.41;28.58;99932.97;4951583;28;20074;-69
2022/03/12 11:11:00;;;;;;;13.43;5.77;;;;;;;8.40;29.05;99926.84;4984317;28;20039;-69
2022/03/12 11:13:40;;;;;;;11.90;5.00;;;;;;;8.31;28.75;99916.22;4967138;28;20050;-69
2022/03/12 11:16:17;;;;;;;14.47;5.80;;;;;;;8.44;29.06;99928.22;4983960;28;20043;-69
2022/03/12 11:18:55;;;;;;;11.53;5.70;;;;;;;8.46;28.68;99928.06;4980530;28;20093;-69
2022/03/12 11:21:39;;;;;;;10.90;4.73;;;;;;;8.38;28.91;99917.34;4952283;28;20422;-68
2022/03/12 11:24:26;;;;;;;9.33;4.83;;;;;;;8.54;28.49;99938.81;4916510;29;20047;-68
2022/03/12 11:26:58;;;;;;;14.07;5.17;;;;;;;8.32;28.82;99944.34;4947820;29;20090;-69
2022/03/12 11:29:26;;;;;;;12.60;4.70;;;;;;;8.42;28.47;99931.97;4932444;29;20051;-68
2022/03/12 11:31:54;;;;;;;11.53;4.50;;;;;;;8.48;28.64;99942.03;4947988;29;20222;-69
2022/03/12 11:34:20;;;;;;;10.03;4.57;;;;;;;8.16;28.73;99912.28;4948189;28;20055;-69
2022/03/12 11:36:54;;;;;;;13.67;5.73;;;;;;;8.32;28.90;99933.75;4966609;28;20050;-69
2022/03/12 11:39:27;;;;;;;15.53;6.27;;;;;;;8.31;29.23;99940.03;4983373;28;20042;-70
2022/03/12 11:42:04;;;;;;;20.93;6.77;;;;;;;8.33;28.95;99946.03;4969062;28;20051;-69
2022/03/12 11:44:30;;;;;;;17.80;7.00;;;;;;;8.06;29.08;99941.34;4965394;28;20051;-69